Filer Corners, New York
Current Conditions -  °F | °C
As of 7:53 AM on Wednesday 22 Oct 2014 (Local Time) from KBGM Reporting Station
Overcast Overcast  
Wind Chill: 42°   Ceiling: 500
Heat Index: 47°   Visibility: 10mi
Dew Point: 45°   Wind: 10mph
Humidity: 93%   Direction: 40°NE
Pressure: 30.04"   Gusts: NA
Location:  42.542°N, 75.2578°W
Report Text: KBGM 221153Z AUTO 04009KT 10SM OVC005 08/07 A3004 RMK AO2 RAE22 SLP176 P0000 60002 70002 T00830072 10094 20083 53015
Loading
Personal Weather Stations






























Interactive Weather Map
Tropical Storm Tracking
New forecast layout! Learn more

10-Day Weather Forecast

Advertisements
Track Severe Weather on mobile